createdAt,value
2019-03-18T00:01:06.376Z,2.37
2019-03-18T00:03:35.364Z,2.23
2019-03-18T00:06:04.241Z,2.73
2019-03-18T00:08:33.349Z,2.60
2019-03-18T00:11:02.241Z,2.50
2019-03-18T00:13:31.151Z,3.30
2019-03-18T00:15:59.971Z,2.40
2019-03-18T00:18:30.509Z,2.37
2019-03-18T00:20:59.337Z,2.50
2019-03-18T00:23:28.235Z,2.50
2019-03-18T00:25:57.077Z,2.40
2019-03-18T00:28:25.903Z,1.73
2019-03-18T00:30:54.805Z,2.30
2019-03-18T00:33:23.807Z,1.40
2019-03-18T00:35:52.634Z,1.87
2019-03-18T00:38:21.460Z,2.13
2019-03-18T00:40:50.261Z,1.67
2019-03-18T00:43:19.195Z,1.80
2019-03-18T00:45:48.026Z,2.13
2019-03-18T00:48:16.846Z,1.87
2019-03-18T00:50:45.662Z,2.67
2019-03-18T00:53:14.513Z,2.43
2019-03-18T00:55:43.341Z,2.23
2019-03-18T00:58:12.245Z,2.23
2019-03-18T01:00:41.104Z,3.03
2019-03-18T01:03:10.029Z,2.00
2019-03-18T01:05:39.837Z,2.00
2019-03-18T01:08:08.715Z,2.07
2019-03-18T01:10:37.538Z,1.80
2019-03-18T01:13:06.348Z,1.37
2019-03-18T01:15:35.183Z,1.80
2019-03-18T01:18:04.178Z,2.33
2019-03-18T01:20:33.156Z,1.87
2019-03-18T01:23:02.058Z,1.43
2019-03-18T01:25:31.030Z,2.63
2019-03-18T01:27:59.859Z,1.70
2019-03-18T01:30:29.513Z,1.43
2019-03-18T01:32:58.347Z,1.60
2019-03-18T01:35:27.157Z,1.20
2019-03-18T01:37:56.479Z,1.40
2019-03-18T01:40:25.329Z,1.50
2019-03-18T01:42:54.233Z,1.70
2019-03-18T01:45:23.307Z,1.57
2019-03-18T01:47:52.249Z,1.43
2019-03-18T01:50:21.182Z,2.77
2019-03-18T01:52:49.991Z,1.50
2019-03-18T01:55:18.813Z,2.13
2019-03-18T01:57:47.614Z,1.53
2019-03-18T02:00:16.605Z,1.23
2019-03-18T02:02:45.417Z,2.03
2019-03-18T02:05:14.312Z,1.40
2019-03-18T02:07:43.210Z,2.23
2019-03-18T02:10:12.317Z,2.00
2019-03-18T02:12:41.290Z,1.77
2019-03-18T02:15:10.321Z,1.63
2019-03-18T02:17:39.258Z,2.10
2019-03-18T02:20:08.625Z,2.50
2019-03-18T02:22:37.441Z,1.97
2019-03-18T02:25:06.521Z,2.00
2019-03-18T02:27:35.525Z,2.40
2019-03-18T02:30:05.134Z,1.50
2019-03-18T02:32:34.051Z,2.40
2019-03-18T02:35:03.021Z,2.17
2019-03-18T02:37:31.844Z,2.87
2019-03-18T02:40:00.688Z,2.47
2019-03-18T02:42:29.653Z,1.80
2019-03-18T02:44:58.472Z,1.70
2019-03-18T02:47:27.354Z,2.40
2019-03-18T02:49:56.183Z,1.97
2019-03-18T02:52:25.055Z,5.70
2019-03-18T02:54:54.119Z,1.50
2019-03-18T02:57:23.277Z,1.90
2019-03-18T02:59:52.113Z,1.40
2019-03-18T03:02:21.034Z,2.17
2019-03-18T03:04:50.081Z,2.03
2019-03-18T03:07:19.062Z,1.37
2019-03-18T03:09:47.976Z,2.03
2019-03-18T03:12:16.829Z,1.90
2019-03-18T03:14:45.950Z,2.30
2019-03-18T03:17:14.845Z,2.40
2019-03-18T03:19:43.768Z,1.90
2019-03-18T03:22:12.770Z,1.40
2019-03-18T03:24:41.600Z,1.90
2019-03-18T03:27:10.545Z,2.10
2019-03-18T03:29:39.490Z,2.17
2019-03-18T03:32:08.405Z,2.20
2019-03-18T03:34:37.776Z,1.87
2019-03-18T03:37:06.904Z,1.77
2019-03-18T03:39:35.762Z,2.10
2019-03-18T03:42:04.687Z,2.53
2019-03-18T03:44:33.505Z,2.33
2019-03-18T03:47:02.338Z,1.60
2019-03-18T03:49:31.239Z,1.67
2019-03-18T03:52:00.330Z,2.03
2019-03-18T03:54:29.775Z,2.00
2019-03-18T03:56:58.764Z,2.03
2019-03-18T03:59:28.362Z,1.80
2019-03-18T04:01:57.292Z,1.83
2019-03-18T04:04:26.170Z,2.23
2019-03-18T04:06:55.154Z,2.07
2019-03-18T04:09:24.186Z,2.37
2019-03-18T04:11:53.211Z,2.03
2019-03-18T04:14:22.139Z,2.30
2019-03-18T04:17:01.561Z,1.93
2019-03-18T04:19:21.911Z,2.00
2019-03-18T04:21:51.130Z,1.87
2019-03-18T04:24:20.509Z,1.83
2019-03-18T04:26:49.567Z,2.23
2019-03-18T04:29:21.779Z,1.63
2019-03-18T04:31:50.881Z,1.50
2019-03-18T04:34:19.715Z,1.57
2019-03-18T04:36:48.684Z,1.70
2019-03-18T04:39:17.659Z,1.40
2019-03-18T04:41:46.534Z,1.20
2019-03-18T04:44:15.630Z,1.67
2019-03-18T04:46:44.771Z,1.57
2019-03-18T04:49:13.586Z,1.40
2019-03-18T04:51:42.430Z,1.83
2019-03-18T04:54:11.258Z,1.70
2019-03-18T04:56:40.194Z,1.50
2019-03-18T04:59:09.116Z,1.63
2019-03-18T05:01:38.224Z,1.60
2019-03-18T05:04:07.102Z,2.30
2019-03-18T05:06:35.914Z,1.90
2019-03-18T05:09:06.541Z,1.87
2019-03-18T05:11:35.462Z,2.03
2019-03-18T05:14:04.366Z,1.80
2019-03-18T05:16:33.180Z,1.70
2019-03-18T05:19:02.058Z,2.50
2019-03-18T05:21:30.937Z,2.50
2019-03-18T05:23:59.902Z,1.73
2019-03-18T05:26:28.823Z,2.20
2019-03-18T05:28:57.933Z,2.17
2019-03-18T05:31:26.886Z,2.10
2019-03-18T05:33:55.754Z,2.70
2019-03-18T05:36:24.630Z,3.00
2019-03-18T05:38:53.486Z,1.97
2019-03-18T05:41:22.542Z,1.67
2019-03-18T05:43:51.458Z,2.13
2019-03-18T05:46:20.271Z,1.43
2019-03-18T05:48:49.103Z,1.87
2019-03-18T05:51:17.917Z,1.53
2019-03-18T05:53:46.771Z,2.00
2019-03-18T05:56:15.666Z,1.83
2019-03-18T05:58:44.702Z,2.20
2019-03-18T06:01:13.904Z,2.40
2019-03-18T06:03:42.716Z,2.30
2019-03-18T06:06:11.758Z,2.83
2019-03-18T06:08:40.903Z,2.60
2019-03-18T06:11:09.749Z,3.70
2019-03-18T06:13:38.595Z,2.67
2019-03-18T06:16:07.588Z,2.10
2019-03-18T06:18:37.003Z,1.83
2019-03-18T06:21:05.883Z,2.20
2019-03-18T06:23:34.876Z,3.40
2019-03-18T06:26:03.803Z,3.20
2019-03-18T06:28:32.649Z,1.73
2019-03-18T06:31:01.493Z,1.87
2019-03-18T06:33:30.425Z,1.70
2019-03-18T06:35:59.226Z,1.97
2019-03-18T06:38:28.080Z,1.73
2019-03-18T06:40:56.934Z,2.90
2019-03-18T06:43:25.991Z,2.63
2019-03-18T06:45:54.793Z,2.00
2019-03-18T06:48:23.682Z,1.80
2019-03-18T06:50:52.562Z,2.60
2019-03-18T06:53:21.409Z,1.93
2019-03-18T06:55:50.265Z,2.17
2019-03-18T06:58:19.074Z,2.63
2019-03-18T07:00:48.017Z,2.27
2019-03-18T07:03:19.841Z,2.43
2019-03-18T07:05:48.757Z,3.10
2019-03-18T07:08:17.618Z,2.13
2019-03-18T07:10:46.490Z,2.57
2019-03-18T07:13:15.319Z,3.00
2019-03-18T07:15:44.327Z,2.53
2019-03-18T07:18:18.076Z,2.10
2019-03-18T07:20:43.710Z,2.53
2019-03-18T07:23:12.524Z,2.30
2019-03-18T07:25:41.454Z,2.77
2019-03-18T07:28:10.351Z,2.73
2019-03-18T07:30:39.301Z,2.80
2019-03-18T07:33:08.298Z,1.90
2019-03-18T07:35:37.175Z,2.90
2019-03-18T07:38:06.158Z,3.10
2019-03-18T07:40:35.294Z,3.07
2019-03-18T07:43:04.236Z,2.70
2019-03-18T07:45:33.135Z,2.37
2019-03-18T07:48:02.079Z,2.67
2019-03-18T07:50:30.886Z,2.80
2019-03-18T07:52:59.789Z,2.10
2019-03-18T07:55:28.730Z,3.00
2019-03-18T07:57:57.691Z,2.50
2019-03-18T08:00:26.655Z,2.07
2019-03-18T08:02:55.702Z,2.53
2019-03-18T08:05:24.755Z,2.57
2019-03-18T08:07:53.592Z,2.23
2019-03-18T08:10:22.527Z,3.57
2019-03-18T08:12:51.452Z,2.10
2019-03-18T08:15:20.353Z,2.30
2019-03-18T08:17:49.284Z,2.30
2019-03-18T08:20:18.148Z,2.20
2019-03-18T08:22:46.973Z,1.90
2019-03-18T08:25:15.857Z,2.33
2019-03-18T08:27:44.766Z,2.70
2019-03-18T08:30:13.765Z,2.33
2019-03-18T08:32:42.765Z,3.07
2019-03-18T08:35:11.715Z,2.07
2019-03-18T08:37:40.559Z,2.70
2019-03-18T08:40:09.558Z,2.30
2019-03-18T08:42:38.377Z,3.20
2019-03-18T08:45:07.655Z,1.70
2019-03-18T08:47:36.716Z,2.70
2019-03-18T08:50:06.230Z,2.43
2019-03-18T08:52:35.030Z,2.87
2019-03-18T08:55:03.957Z,2.97
2019-03-18T08:57:32.793Z,3.50
2019-03-18T09:00:01.676Z,2.80
2019-03-18T09:02:30.678Z,2.43
2019-03-18T09:04:59.587Z,2.43
2019-03-18T09:07:28.466Z,2.50
2019-03-18T09:09:57.357Z,3.13
2019-03-18T09:12:26.301Z,3.20
2019-03-18T09:14:55.126Z,3.00
2019-03-18T09:17:24.168Z,2.80
2019-03-18T09:19:53.114Z,2.10
2019-03-18T09:22:22.179Z,2.93
2019-03-18T09:24:51.006Z,2.03
2019-03-18T09:27:19.902Z,2.03
2019-03-18T09:29:48.798Z,3.00
2019-03-18T09:32:17.604Z,2.40
2019-03-18T09:34:46.513Z,2.70
2019-03-18T09:37:15.382Z,1.80
2019-03-18T09:39:44.435Z,3.17
2019-03-18T09:42:13.349Z,1.73
2019-03-18T09:44:42.197Z,2.83
2019-03-18T09:47:11.034Z,1.90
2019-03-18T09:49:39.845Z,3.17
2019-03-18T09:52:08.766Z,2.13
2019-03-18T09:54:37.592Z,4.10
2019-03-18T09:57:06.562Z,2.40
2019-03-18T09:59:35.598Z,2.93
2019-03-18T10:02:04.745Z,3.40
2019-03-18T10:04:33.795Z,3.73
2019-03-18T10:07:03.153Z,3.07
2019-03-18T10:09:32.511Z,2.50
2019-03-18T10:12:01.331Z,2.60
2019-03-18T10:14:30.680Z,3.70
2019-03-18T10:17:08.939Z,2.93
2019-03-18T10:19:33.715Z,3.70
2019-03-18T10:22:01.287Z,2.73
2019-03-18T10:24:30.209Z,4.10
2019-03-18T10:26:59.264Z,3.33
2019-03-18T10:29:28.164Z,2.27
2019-03-18T10:31:57.073Z,3.13
2019-03-18T10:34:25.927Z,3.00
2019-03-18T10:36:54.920Z,3.40
2019-03-18T10:39:24.035Z,2.87
2019-03-18T10:41:53.133Z,3.03
2019-03-18T10:44:21.983Z,2.90
2019-03-18T10:46:50.838Z,4.40
2019-03-18T10:49:20.712Z,3.20
2019-03-18T10:51:49.553Z,2.97
2019-03-18T10:54:26.259Z,3.10
2019-03-18T10:56:49.159Z,3.07
2019-03-18T10:59:18.270Z,3.30
2019-03-18T11:01:47.274Z,3.10
2019-03-18T11:04:16.113Z,2.50
2019-03-18T11:06:44.958Z,3.03
2019-03-18T11:09:13.835Z,3.23
2019-03-18T11:11:42.669Z,3.40
2019-03-18T11:14:11.674Z,3.10
2019-03-18T11:16:40.718Z,3.00
2019-03-18T11:19:09.650Z,2.20
2019-03-18T11:21:38.625Z,3.40
2019-03-18T11:24:07.676Z,3.70
2019-03-18T11:26:36.473Z,2.80
2019-03-18T11:29:05.920Z,3.80
2019-03-18T11:31:35.092Z,3.20
2019-03-18T11:34:04.006Z,2.10
2019-03-18T11:36:33.011Z,2.73
2019-03-18T11:39:01.944Z,3.90
2019-03-18T11:41:30.894Z,3.30
2019-03-18T11:43:59.731Z,2.50
2019-03-18T11:46:28.526Z,2.73
2019-03-18T11:48:57.372Z,3.30
2019-03-18T11:51:29.443Z,3.90
2019-03-18T11:53:58.278Z,3.10
2019-03-18T11:56:27.273Z,2.70
2019-03-18T11:58:56.181Z,2.53
2019-03-18T12:01:24.995Z,3.23
2019-03-18T12:03:53.968Z,2.87
2019-03-18T12:06:22.976Z,2.53
2019-03-18T12:08:51.817Z,3.40
2019-03-18T12:11:20.721Z,3.20
2019-03-18T12:13:49.608Z,3.73
2019-03-18T12:16:18.857Z,3.33
2019-03-18T12:18:47.677Z,3.20
2019-03-18T12:21:16.664Z,2.40
2019-03-18T12:23:45.570Z,3.10
2019-03-18T12:26:14.514Z,3.33
2019-03-18T12:28:43.642Z,3.50
2019-03-18T12:31:12.568Z,2.63
2019-03-18T12:33:41.463Z,4.03
2019-03-18T12:36:10.437Z,2.73
2019-03-18T12:38:39.442Z,3.20
2019-03-18T12:41:08.501Z,2.73
2019-03-18T12:43:37.346Z,4.00
2019-03-18T12:46:06.305Z,3.23
2019-03-18T12:48:35.164Z,2.80
2019-03-18T12:51:04.225Z,3.40
2019-03-18T12:53:33.087Z,3.07
2019-03-18T12:56:02.043Z,3.07
2019-03-18T12:58:34.206Z,3.77
2019-03-18T13:01:12.179Z,2.40
2019-03-18T13:03:33.831Z,2.10
2019-03-18T13:06:03.032Z,4.53
2019-03-18T13:08:32.029Z,3.83
2019-03-18T13:11:01.039Z,2.80
2019-03-18T13:13:29.905Z,2.27
2019-03-18T13:15:58.809Z,2.77
2019-03-18T13:18:27.773Z,2.73
2019-03-18T13:21:07.265Z,2.40
2019-03-18T13:23:27.403Z,2.40
2019-03-18T13:25:56.390Z,1.77
2019-03-18T13:28:25.418Z,2.40
2019-03-18T13:30:54.347Z,2.40
2019-03-18T13:33:23.223Z,2.97
2019-03-18T13:35:52.266Z,2.07
2019-03-18T13:38:21.207Z,2.43
2019-03-18T13:40:50.205Z,2.00
2019-03-18T13:43:19.045Z,3.00
2019-03-18T13:45:55.097Z,2.80
2019-03-18T13:48:18.438Z,2.80
2019-03-18T13:50:47.399Z,2.60
2019-03-18T13:53:16.321Z,2.50
2019-03-18T13:55:45.206Z,2.40
2019-03-18T13:58:14.053Z,2.03
2019-03-18T14:00:42.945Z,2.13
2019-03-18T14:03:11.868Z,2.90
2019-03-18T14:05:40.829Z,3.20
2019-03-18T14:08:09.738Z,2.63
2019-03-18T14:10:38.665Z,2.73
2019-03-18T14:13:07.658Z,2.90
2019-03-18T14:15:36.550Z,2.80
2019-03-18T14:18:05.593Z,2.60
2019-03-18T14:20:34.497Z,3.03
2019-03-18T14:23:03.345Z,2.80
2019-03-18T14:25:32.230Z,3.30
2019-03-18T14:28:01.141Z,3.03
2019-03-18T14:30:30.052Z,2.33
2019-03-18T14:32:59.042Z,2.70
2019-03-18T14:35:28.015Z,2.53
2019-03-18T14:37:56.928Z,2.03
2019-03-18T14:40:25.846Z,2.10
2019-03-18T14:42:54.895Z,3.13
2019-03-18T14:45:24.082Z,3.10
2019-03-18T14:47:53.397Z,2.50
2019-03-18T14:50:22.365Z,2.97
2019-03-18T14:52:51.481Z,2.07
2019-03-18T14:55:20.470Z,2.30
2019-03-18T14:57:49.350Z,2.63
2019-03-18T15:00:19.838Z,2.23
2019-03-18T15:02:48.802Z,3.03
2019-03-18T15:05:17.825Z,2.20
2019-03-18T15:07:46.891Z,3.00
2019-03-18T15:10:16.157Z,2.57
2019-03-18T15:12:45.098Z,2.83
2019-03-18T15:15:14.982Z,3.03
2019-03-18T15:17:43.852Z,3.10
2019-03-18T15:20:12.995Z,3.60
2019-03-18T15:22:42.013Z,2.70
2019-03-18T15:25:13.622Z,2.73
2019-03-18T15:27:42.610Z,3.37
2019-03-18T15:30:13.308Z,3.03
2019-03-18T15:32:42.190Z,2.93
2019-03-18T15:35:11.199Z,3.20
2019-03-18T15:37:40.096Z,3.70
2019-03-18T15:40:09.678Z,3.10
2019-03-18T15:42:38.660Z,3.70
2019-03-18T15:45:08.869Z,3.90
2019-03-18T15:47:37.802Z,2.87
2019-03-18T15:50:07.910Z,3.10
2019-03-18T15:52:36.906Z,3.00
2019-03-18T15:55:06.146Z,3.10
2019-03-18T15:57:35.167Z,2.57
2019-03-18T16:00:04.650Z,2.67
2019-03-18T16:02:33.585Z,3.40
2019-03-18T16:05:02.465Z,2.93
2019-03-18T16:07:31.303Z,2.57
2019-03-18T16:10:00.346Z,2.90
2019-03-18T16:12:29.962Z,2.83
2019-03-18T16:14:58.900Z,3.07
2019-03-18T16:17:27.847Z,3.23
2019-03-18T16:19:56.742Z,2.80
2019-03-18T16:22:25.582Z,3.50
2019-03-18T16:24:54.561Z,3.20
2019-03-18T16:27:23.522Z,3.20
2019-03-18T16:29:52.538Z,2.77
2019-03-18T16:32:21.426Z,3.60
2019-03-18T16:34:50.384Z,2.87
2019-03-18T16:37:19.334Z,3.00
2019-03-18T16:40:08.105Z,3.53
2019-03-18T16:42:37.084Z,3.50
2019-03-18T16:45:06.516Z,2.40
2019-03-18T16:47:35.443Z,3.10
2019-03-18T16:50:04.989Z,2.53
2019-03-18T16:52:35.963Z,2.23
2019-03-18T16:55:04.927Z,2.20
2019-03-18T16:57:34.001Z,3.23
2019-03-18T17:00:03.082Z,2.10
2019-03-18T17:02:32.077Z,2.60
2019-03-18T17:05:00.930Z,2.30
2019-03-18T17:07:29.807Z,2.73
2019-03-18T17:09:58.777Z,3.40
2019-03-18T17:12:27.650Z,2.17
2019-03-18T17:14:56.642Z,2.73
2019-03-18T17:17:25.602Z,1.87
2019-03-18T17:19:54.517Z,2.47
2019-03-18T17:22:23.387Z,2.00
2019-03-18T17:24:52.251Z,3.13
2019-03-18T17:27:21.235Z,2.50
2019-03-18T17:29:50.062Z,2.70
2019-03-18T17:32:18.971Z,2.30
2019-03-18T17:34:47.977Z,2.60
2019-03-18T17:37:16.886Z,3.30
2019-03-18T17:39:45.862Z,2.77
2019-03-18T17:42:14.693Z,2.20
2019-03-18T17:44:43.589Z,2.73
2019-03-18T17:47:12.605Z,2.90
2019-03-18T17:49:41.633Z,3.30
2019-03-18T17:52:10.587Z,2.80
2019-03-18T17:54:39.515Z,4.93
2019-03-18T17:57:11.023Z,3.60
2019-03-18T17:59:39.082Z,4.57
2019-03-18T18:02:07.970Z,3.57
2019-03-18T18:04:36.797Z,3.63
2019-03-18T18:07:05.700Z,3.63
2019-03-18T18:09:34.670Z,4.13
2019-03-18T18:12:03.581Z,3.80
2019-03-18T18:14:32.488Z,3.77
2019-03-18T18:17:01.386Z,3.50
2019-03-18T18:19:30.271Z,3.60
2019-03-18T18:21:59.105Z,3.00
2019-03-18T18:24:28.009Z,4.40
2019-03-18T18:26:56.883Z,3.13
2019-03-18T18:29:25.886Z,4.23
2019-03-18T18:31:54.721Z,2.77
2019-03-18T18:34:23.586Z,3.90
2019-03-18T18:36:52.451Z,3.33
2019-03-18T18:39:21.528Z,3.97
2019-03-18T18:41:51.821Z,3.80
2019-03-18T18:44:20.897Z,4.20
2019-03-18T18:46:49.775Z,4.90
2019-03-18T18:49:18.681Z,4.37
2019-03-18T18:51:47.577Z,4.03
2019-03-18T18:54:16.515Z,4.73
2019-03-18T18:56:45.461Z,4.80
2019-03-18T18:59:14.366Z,5.23
2019-03-18T19:01:43.279Z,5.13
2019-03-18T19:04:12.132Z,9.00
2019-03-18T19:06:40.988Z,7.10
2019-03-18T19:09:09.885Z,6.90
2019-03-18T19:11:38.722Z,8.23
2019-03-18T19:14:07.655Z,7.23
2019-03-18T19:16:36.549Z,8.80
2019-03-18T19:19:05.438Z,8.03
2019-03-18T19:21:34.355Z,7.13
2019-03-18T19:24:03.359Z,7.03
2019-03-18T19:26:32.417Z,7.10
2019-03-18T19:29:01.386Z,6.70
2019-03-18T19:31:30.378Z,6.73
2019-03-18T19:33:59.226Z,7.20
2019-03-18T19:36:28.057Z,6.30
2019-03-18T19:38:56.986Z,8.23
2019-03-18T19:41:25.823Z,6.00
2019-03-18T19:43:54.788Z,5.60
2019-03-18T19:46:23.607Z,6.33
2019-03-18T19:48:52.490Z,6.00
2019-03-18T19:51:21.351Z,5.80
2019-03-18T19:53:50.262Z,6.60
2019-03-18T19:56:19.108Z,6.10
2019-03-18T19:58:47.989Z,5.43
2019-03-18T20:01:17.038Z,6.60
2019-03-18T20:03:45.874Z,6.30
2019-03-18T20:06:14.738Z,5.60
2019-03-18T20:08:43.621Z,7.37
2019-03-18T20:11:12.590Z,6.73
2019-03-18T20:13:41.427Z,6.93
2019-03-18T20:16:10.404Z,5.60
2019-03-18T20:18:39.332Z,6.20
2019-03-18T20:21:08.173Z,8.03
2019-03-18T20:23:37.136Z,8.00
2019-03-18T20:26:06.129Z,7.50
2019-03-18T20:28:34.993Z,8.20
2019-03-18T20:31:04.129Z,6.50
2019-03-18T20:33:32.953Z,5.90
2019-03-18T20:36:01.779Z,7.00
2019-03-18T20:38:30.755Z,7.43
2019-03-18T20:40:59.695Z,6.53
2019-03-18T20:43:30.179Z,7.10
2019-03-18T20:45:59.198Z,6.57
2019-03-18T20:48:28.290Z,7.13
2019-03-18T20:50:57.254Z,6.37
2019-03-18T20:53:26.246Z,7.00
2019-03-18T20:55:55.262Z,7.70
2019-03-18T20:58:24.186Z,7.40
2019-03-18T21:00:53.192Z,6.97
2019-03-18T21:03:22.090Z,6.90
2019-03-18T21:05:50.998Z,6.50
2019-03-18T21:08:19.986Z,6.77
2019-03-18T21:10:48.869Z,6.93
2019-03-18T21:13:17.813Z,7.13
2019-03-18T21:16:05.945Z,6.80
2019-03-18T21:18:34.877Z,7.07
2019-03-18T21:21:03.793Z,6.53
2019-03-18T21:23:32.804Z,6.93
2019-03-18T21:26:01.678Z,6.00
2019-03-18T21:28:40.807Z,7.13
2019-03-18T21:31:01.418Z,6.30
2019-03-18T21:33:30.246Z,5.20
2019-03-18T21:35:59.271Z,6.27
2019-03-18T21:38:28.387Z,5.90
2019-03-18T21:40:57.239Z,6.93
2019-03-18T21:43:26.084Z,6.80
2019-03-18T21:45:54.932Z,5.27
2019-03-18T21:48:23.948Z,6.00
2019-03-18T21:50:53.054Z,6.60
2019-03-18T21:53:22.036Z,5.50
2019-03-18T21:55:51.039Z,6.10
2019-03-18T21:58:20.035Z,6.30
2019-03-18T22:00:48.999Z,5.30
2019-03-18T22:03:17.826Z,6.13
2019-03-18T22:05:46.801Z,5.80
2019-03-18T22:08:15.689Z,4.80
2019-03-18T22:10:44.526Z,5.13
2019-03-18T22:13:13.438Z,5.20
2019-03-18T22:15:42.354Z,6.10
2019-03-18T22:18:11.197Z,4.43
2019-03-18T22:20:40.113Z,5.67
2019-03-18T22:23:09.154Z,5.40
2019-03-18T22:25:38.170Z,5.43
2019-03-18T22:28:07.075Z,5.03
2019-03-18T22:30:35.882Z,4.80
2019-03-18T22:33:04.882Z,4.80
2019-03-18T22:35:33.728Z,4.73
2019-03-18T22:38:02.659Z,5.20
2019-03-18T22:40:31.579Z,4.30
2019-03-18T22:43:00.463Z,4.77
2019-03-18T22:45:29.447Z,4.60
2019-03-18T22:47:58.454Z,5.17
2019-03-18T22:50:27.272Z,4.90
2019-03-18T22:52:56.174Z,5.20
2019-03-18T22:55:25.033Z,4.50
2019-03-18T22:57:54.026Z,4.30
2019-03-18T23:00:33.173Z,5.57
2019-03-18T23:03:02.172Z,5.10
2019-03-18T23:05:31.139Z,5.03
2019-03-18T23:08:00.119Z,4.60
2019-03-18T23:10:28.970Z,4.13
2019-03-18T23:12:57.895Z,3.80
2019-03-18T23:15:26.768Z,4.03
2019-03-18T23:17:55.674Z,4.67
2019-03-18T23:20:24.674Z,4.20
2019-03-18T23:22:53.521Z,5.23
2019-03-18T23:25:22.492Z,3.97
2019-03-18T23:27:51.382Z,4.50
2019-03-18T23:30:20.216Z,4.90
2019-03-18T23:32:49.536Z,4.83
2019-03-18T23:35:18.518Z,3.87
2019-03-18T23:37:47.339Z,5.10
2019-03-18T23:40:16.250Z,3.53
2019-03-18T23:42:45.072Z,4.00
2019-03-18T23:45:14.685Z,4.80
2019-03-18T23:47:43.594Z,4.57
2019-03-18T23:50:12.948Z,4.63
2019-03-18T23:52:41.882Z,4.33
2019-03-18T23:55:18.879Z,4.93
2019-03-18T23:57:41.855Z,4.33
